sensor_id;sensor_type;location;lat;lon;timestamp;temperature;humidity
24814;DHT22;12904;50.088;11.414;2024-03-08T00:01:09;-0.40;99.90
24814;DHT22;12904;50.088;11.414;2024-03-08T00:03:35;-0.40;99.90
24814;DHT22;12904;50.088;11.414;2024-03-08T00:06:01;-0.50;99.90
24814;DHT22;12904;50.088;11.414;2024-03-08T00:08:27;-0.50;99.90
24814;DHT22;12904;50.088;11.414;2024-03-08T00:10:52;-0.50;99.90
24814;DHT22;12904;50.088;11.414;2024-03-08T00:13:18;-0.50;99.90
24814;DHT22;12904;50.088;11.414;2024-03-08T00:15:44;-0.60;99.90
24814;DHT22;12904;50.088;11.414;2024-03-08T00:18:09;-0.60;99.90
24814;DHT22;12904;50.088;11.414;2024-03-08T00:20:37;-0.60;99.90
24814;DHT22;12904;50.088;11.414;2024-03-08T00:23:02;-0.60;99.90
24814;DHT22;12904;50.088;11.414;2024-03-08T00:25:28;-0.60;99.90
24814;DHT22;12904;50.088;11.414;2024-03-08T00:27:54;-0.70;99.90
24814;DHT22;12904;50.088;11.414;2024-03-08T00:30:23;-0.70;99.90
24814;DHT22;12904;50.088;11.414;2024-03-08T00:32:49;-0.70;99.90
24814;DHT22;12904;50.088;11.414;2024-03-08T00:35:15;-0.80;99.90
24814;DHT22;12904;50.088;11.414;2024-03-08T00:37:41;-0.80;99.90
24814;DHT22;12904;50.088;11.414;2024-03-08T00:40:12;-0.80;99.90
24814;DHT22;12904;50.088;11.414;2024-03-08T00:42:38;-0.90;99.90
24814;DHT22;12904;50.088;11.414;2024-03-08T00:45:05;-0.90;99.90
24814;DHT22;12904;50.088;11.414;2024-03-08T00:47:31;-0.90;99.90
24814;DHT22;12904;50.088;11.414;2024-03-08T00:49:57;-0.90;99.90
24814;DHT22;12904;50.088;11.414;2024-03-08T00:52:23;-1.00;99.90
24814;DHT22;12904;50.088;11.414;2024-03-08T00:54:49;-1.00;99.90
24814;DHT22;12904;50.088;11.414;2024-03-08T00:57:15;-1.00;99.90
24814;DHT22;12904;50.088;11.414;2024-03-08T00:59:40;-1.10;99.90
24814;DHT22;12904;50.088;11.414;2024-03-08T01:02:06;-1.10;99.90
24814;DHT22;12904;50.088;11.414;2024-03-08T01:04:34;-1.10;99.90
24814;DHT22;12904;50.088;11.414;2024-03-08T01:07:00;-1.10;99.90
24814;DHT22;12904;50.088;11.414;2024-03-08T01:09:26;-1.10;99.90
24814;DHT22;12904;50.088;11.414;2024-03-08T01:11:56;-1.20;99.90
24814;DHT22;12904;50.088;11.414;2024-03-08T01:14:22;-1.20;99.90
24814;DHT22;12904;50.088;11.414;2024-03-08T01:16:48;-1.20;99.90
24814;DHT22;12904;50.088;11.414;2024-03-08T01:19:14;-1.30;99.90
24814;DHT22;12904;50.088;11.414;2024-03-08T01:21:40;-1.30;99.90
24814;DHT22;12904;50.088;11.414;2024-03-08T01:24:06;-1.40;99.90
24814;DHT22;12904;50.088;11.414;2024-03-08T01:26:32;-1.40;99.90
24814;DHT22;12904;50.088;11.414;2024-03-08T01:28:59;-1.40;99.90
24814;DHT22;12904;50.088;11.414;2024-03-08T01:31:25;-1.40;99.90
24814;DHT22;12904;50.088;11.414;2024-03-08T01:33:51;-1.40;99.90
24814;DHT22;12904;50.088;11.414;2024-03-08T01:36:16;-1.40;99.90
24814;DHT22;12904;50.088;11.414;2024-03-08T01:38:44;-1.40;99.90
24814;DHT22;12904;50.088;11.414;2024-03-08T01:41:10;-1.40;99.90
24814;DHT22;12904;50.088;11.414;2024-03-08T01:43:38;-1.50;99.90
24814;DHT22;12904;50.088;11.414;2024-03-08T01:46:05;-1.50;99.90
24814;DHT22;12904;50.088;11.414;2024-03-08T01:48:31;-1.50;99.90
24814;DHT22;12904;50.088;11.414;2024-03-08T01:50:57;-1.40;99.90
24814;DHT22;12904;50.088;11.414;2024-03-08T01:53:27;-1.50;99.90
24814;DHT22;12904;50.088;11.414;2024-03-08T01:55:56;-1.50;99.90
24814;DHT22;12904;50.088;11.414;2024-03-08T01:58:23;-1.50;99.90
24814;DHT22;12904;50.088;11.414;2024-03-08T02:00:49;-1.50;99.90
24814;DHT22;12904;50.088;11.414;2024-03-08T02:03:18;-1.50;99.90
24814;DHT22;12904;50.088;11.414;2024-03-08T02:05:43;-1.50;99.90
24814;DHT22;12904;50.088;11.414;2024-03-08T02:08:09;-1.50;99.90
24814;DHT22;12904;50.088;11.414;2024-03-08T02:10:40;-1.60;99.90
24814;DHT22;12904;50.088;11.414;2024-03-08T02:13:07;-1.60;99.90
24814;DHT22;12904;50.088;11.414;2024-03-08T02:15:56;-1.60;99.90
24814;DHT22;12904;50.088;11.414;2024-03-08T02:18:22;-1.70;99.90
24814;DHT22;12904;50.088;11.414;2024-03-08T02:20:52;-1.70;99.90
24814;DHT22;12904;50.088;11.414;2024-03-08T02:23:19;-1.70;99.90
24814;DHT22;12904;50.088;11.414;2024-03-08T02:25:45;-1.70;99.90
24814;DHT22;12904;50.088;11.414;2024-03-08T02:28:11;-1.70;99.90
24814;DHT22;12904;50.088;11.414;2024-03-08T02:30:37;-1.70;99.90
24814;DHT22;12904;50.088;11.414;2024-03-08T02:33:07;-1.80;99.90
24814;DHT22;12904;50.088;11.414;2024-03-08T02:35:35;-1.80;99.90
24814;DHT22;12904;50.088;11.414;2024-03-08T02:38:01;-1.80;99.90
24814;DHT22;12904;50.088;11.414;2024-03-08T02:40:27;-1.80;99.90
24814;DHT22;12904;50.088;11.414;2024-03-08T02:42:52;-1.90;99.90
24814;DHT22;12904;50.088;11.414;2024-03-08T02:45:18;-1.90;99.90
24814;DHT22;12904;50.088;11.414;2024-03-08T02:47:44;-1.90;99.90
24814;DHT22;12904;50.088;11.414;2024-03-08T02:50:09;-1.90;99.90
24814;DHT22;12904;50.088;11.414;2024-03-08T02:52:35;-1.90;99.90
24814;DHT22;12904;50.088;11.414;2024-03-08T02:55:04;-1.90;99.90
24814;DHT22;12904;50.088;11.414;2024-03-08T02:57:33;-2.00;99.90
24814;DHT22;12904;50.088;11.414;2024-03-08T02:59:59;-2.00;99.90
24814;DHT22;12904;50.088;11.414;2024-03-08T03:02:27;-2.00;99.90
24814;DHT22;12904;50.088;11.414;2024-03-08T03:04:53;-2.00;99.90
24814;DHT22;12904;50.088;11.414;2024-03-08T03:07:21;-2.10;99.90
24814;DHT22;12904;50.088;11.414;2024-03-08T03:09:47;-2.20;99.90
24814;DHT22;12904;50.088;11.414;2024-03-08T03:12:12;-2.20;99.90
24814;DHT22;12904;50.088;11.414;2024-03-08T03:14:39;-2.20;99.90
24814;DHT22;12904;50.088;11.414;2024-03-08T03:17:05;-2.30;99.90
24814;DHT22;12904;50.088;11.414;2024-03-08T03:19:31;-2.30;99.90
24814;DHT22;12904;50.088;11.414;2024-03-08T03:21:56;-2.30;99.90
24814;DHT22;12904;50.088;11.414;2024-03-08T03:24:22;-2.30;99.90
24814;DHT22;12904;50.088;11.414;2024-03-08T03:26:49;-2.30;99.90
24814;DHT22;12904;50.088;11.414;2024-03-08T03:29:15;-2.30;99.90
24814;DHT22;12904;50.088;11.414;2024-03-08T03:31:42;-2.30;99.90
24814;DHT22;12904;50.088;11.414;2024-03-08T03:34:10;-2.30;99.90
24814;DHT22;12904;50.088;11.414;2024-03-08T03:36:37;-2.30;99.90
24814;DHT22;12904;50.088;11.414;2024-03-08T03:39:10;-2.40;99.90
24814;DHT22;12904;50.088;11.414;2024-03-08T03:41:38;-2.30;99.90
24814;DHT22;12904;50.088;11.414;2024-03-08T03:44:05;-2.40;99.90
24814;DHT22;12904;50.088;11.414;2024-03-08T03:46:34;-2.40;99.90
24814;DHT22;12904;50.088;11.414;2024-03-08T03:48:59;-2.40;99.90
24814;DHT22;12904;50.088;11.414;2024-03-08T03:51:25;-2.40;99.90
24814;DHT22;12904;50.088;11.414;2024-03-08T03:53:51;-2.30;99.90
24814;DHT22;12904;50.088;11.414;2024-03-08T03:56:18;-2.40;99.90
24814;DHT22;12904;50.088;11.414;2024-03-08T03:58:44;-2.40;99.90
24814;DHT22;12904;50.088;11.414;2024-03-08T04:01:10;-2.40;99.90
24814;DHT22;12904;50.088;11.414;2024-03-08T04:03:35;-2.40;99.90
24814;DHT22;12904;50.088;11.414;2024-03-08T04:06:03;-2.40;99.90
24814;DHT22;12904;50.088;11.414;2024-03-08T04:08:30;-2.40;99.90
24814;DHT22;12904;50.088;11.414;2024-03-08T04:10:55;-2.40;99.90
24814;DHT22;12904;50.088;11.414;2024-03-08T04:13:21;-2.40;99.90
24814;DHT22;12904;50.088;11.414;2024-03-08T04:15:46;-2.40;99.90
24814;DHT22;12904;50.088;11.414;2024-03-08T04:18:15;-2.40;99.90
24814;DHT22;12904;50.088;11.414;2024-03-08T04:20:41;-2.40;99.90
24814;DHT22;12904;50.088;11.414;2024-03-08T04:23:06;-2.40;99.90
24814;DHT22;12904;50.088;11.414;2024-03-08T04:25:32;-2.40;99.90
24814;DHT22;12904;50.088;11.414;2024-03-08T04:27:58;-2.40;99.90
24814;DHT22;12904;50.088;11.414;2024-03-08T04:30:24;-2.40;99.90
24814;DHT22;12904;50.088;11.414;2024-03-08T04:32:50;-2.40;99.90
24814;DHT22;12904;50.088;11.414;2024-03-08T04:35:16;-2.50;99.90
24814;DHT22;12904;50.088;11.414;2024-03-08T04:37:41;-2.50;99.90
24814;DHT22;12904;50.088;11.414;2024-03-08T04:40:07;-2.60;99.90
24814;DHT22;12904;50.088;11.414;2024-03-08T04:42:33;-2.70;99.90
24814;DHT22;12904;50.088;11.414;2024-03-08T04:45:00;-2.70;99.90
24814;DHT22;12904;50.088;11.414;2024-03-08T04:47:25;-2.80;99.90
24814;DHT22;12904;50.088;11.414;2024-03-08T04:49:51;-2.80;99.90
24814;DHT22;12904;50.088;11.414;2024-03-08T04:52:17;-2.80;99.90
24814;DHT22;12904;50.088;11.414;2024-03-08T04:54:43;-2.80;99.90
24814;DHT22;12904;50.088;11.414;2024-03-08T04:57:10;-2.80;99.90
24814;DHT22;12904;50.088;11.414;2024-03-08T04:59:36;-2.70;99.90
24814;DHT22;12904;50.088;11.414;2024-03-08T05:02:02;-2.60;99.90
24814;DHT22;12904;50.088;11.414;2024-03-08T05:04:28;-2.50;99.90
24814;DHT22;12904;50.088;11.414;2024-03-08T05:06:54;-2.50;99.90
24814;DHT22;12904;50.088;11.414;2024-03-08T05:09:20;-2.40;99.90
24814;DHT22;12904;50.088;11.414;2024-03-08T05:11:46;-2.30;99.90
24814;DHT22;12904;50.088;11.414;2024-03-08T05:14:13;-2.20;99.90
24814;DHT22;12904;50.088;11.414;2024-03-08T05:16:45;-2.10;99.90
24814;DHT22;12904;50.088;11.414;2024-03-08T05:19:14;-2.00;99.90
24814;DHT22;12904;50.088;11.414;2024-03-08T05:21:42;-2.00;99.90
24814;DHT22;12904;50.088;11.414;2024-03-08T05:24:09;-2.00;99.90
24814;DHT22;12904;50.088;11.414;2024-03-08T05:26:35;-2.10;99.90
24814;DHT22;12904;50.088;11.414;2024-03-08T05:29:03;-2.10;99.90
24814;DHT22;12904;50.088;11.414;2024-03-08T05:31:29;-2.20;99.90
24814;DHT22;12904;50.088;11.414;2024-03-08T05:33:56;-2.20;99.90
24814;DHT22;12904;50.088;11.414;2024-03-08T05:36:22;-2.20;99.90
24814;DHT22;12904;50.088;11.414;2024-03-08T05:38:47;-2.20;99.90
24814;DHT22;12904;50.088;11.414;2024-03-08T05:41:16;-2.20;99.90
24814;DHT22;12904;50.088;11.414;2024-03-08T05:43:41;-2.10;99.90
24814;DHT22;12904;50.088;11.414;2024-03-08T05:46:07;-2.00;99.90
24814;DHT22;12904;50.088;11.414;2024-03-08T05:48:33;-2.00;99.90
24814;DHT22;12904;50.088;11.414;2024-03-08T05:51:00;-1.90;99.90
24814;DHT22;12904;50.088;11.414;2024-03-08T05:53:27;-1.90;99.90
24814;DHT22;12904;50.088;11.414;2024-03-08T05:55:53;-1.90;99.90
24814;DHT22;12904;50.088;11.414;2024-03-08T05:58:19;-1.80;99.90
24814;DHT22;12904;50.088;11.414;2024-03-08T06:00:45;-1.80;99.90
24814;DHT22;12904;50.088;11.414;2024-03-08T06:03:11;-1.60;99.90
24814;DHT22;12904;50.088;11.414;2024-03-08T06:05:37;-1.50;99.90
24814;DHT22;12904;50.088;11.414;2024-03-08T06:08:03;-1.40;99.90
24814;DHT22;12904;50.088;11.414;2024-03-08T06:10:29;-1.20;99.90
24814;DHT22;12904;50.088;11.414;2024-03-08T06:12:55;-1.10;99.90
24814;DHT22;12904;50.088;11.414;2024-03-08T06:15:21;-0.90;99.90
24814;DHT22;12904;50.088;11.414;2024-03-08T06:17:46;-0.70;99.90
24814;DHT22;12904;50.088;11.414;2024-03-08T06:20:13;-0.50;99.90
24814;DHT22;12904;50.088;11.414;2024-03-08T06:22:41;-0.30;99.90
24814;DHT22;12904;50.088;11.414;2024-03-08T06:25:08;0.00;99.90
24814;DHT22;12904;50.088;11.414;2024-03-08T06:27:34;0.30;99.90
24814;DHT22;12904;50.088;11.414;2024-03-08T06:30:02;0.50;99.90
24814;DHT22;12904;50.088;11.414;2024-03-08T06:32:30;0.70;99.90
24814;DHT22;12904;50.088;11.414;2024-03-08T06:34:56;0.90;99.90
24814;DHT22;12904;50.088;11.414;2024-03-08T06:37:21;1.00;99.90
24814;DHT22;12904;50.088;11.414;2024-03-08T06:39:49;1.10;99.90
24814;DHT22;12904;50.088;11.414;2024-03-08T06:42:17;1.20;99.90
24814;DHT22;12904;50.088;11.414;2024-03-08T06:44:43;1.40;99.90
24814;DHT22;12904;50.088;11.414;2024-03-08T06:47:15;1.50;99.90
24814;DHT22;12904;50.088;11.414;2024-03-08T06:49:42;1.60;99.90
24814;DHT22;12904;50.088;11.414;2024-03-08T06:52:09;1.60;99.90
24814;DHT22;12904;50.088;11.414;2024-03-08T06:54:35;1.70;99.90
24814;DHT22;12904;50.088;11.414;2024-03-08T06:57:04;1.80;99.90
24814;DHT22;12904;50.088;11.414;2024-03-08T06:59:33;1.90;99.90
24814;DHT22;12904;50.088;11.414;2024-03-08T07:02:01;2.00;99.90
24814;DHT22;12904;50.088;11.414;2024-03-08T07:04:27;2.10;99.90
24814;DHT22;12904;50.088;11.414;2024-03-08T07:06:56;2.20;99.90
24814;DHT22;12904;50.088;11.414;2024-03-08T07:09:23;2.20;99.90
24814;DHT22;12904;50.088;11.414;2024-03-08T07:11:50;2.30;99.90
24814;DHT22;12904;50.088;11.414;2024-03-08T07:14:23;2.40;99.90
24814;DHT22;12904;50.088;11.414;2024-03-08T07:16:49;2.50;99.90
24814;DHT22;12904;50.088;11.414;2024-03-08T07:19:15;2.60;99.90
24814;DHT22;12904;50.088;11.414;2024-03-08T07:21:45;2.60;99.90
24814;DHT22;12904;50.088;11.414;2024-03-08T07:24:11;2.70;99.90
24814;DHT22;12904;50.088;11.414;2024-03-08T07:26:43;2.80;99.90
24814;DHT22;12904;50.088;11.414;2024-03-08T07:29:09;2.90;99.90
24814;DHT22;12904;50.088;11.414;2024-03-08T07:31:34;3.10;99.90
24814;DHT22;12904;50.088;11.414;2024-03-08T07:34:15;3.20;99.90
24814;DHT22;12904;50.088;11.414;2024-03-08T07:36:42;3.40;99.90
24814;DHT22;12904;50.088;11.414;2024-03-08T07:39:07;3.60;99.90
24814;DHT22;12904;50.088;11.414;2024-03-08T07:41:40;3.70;99.90
24814;DHT22;12904;50.088;11.414;2024-03-08T07:44:06;3.90;99.90
24814;DHT22;12904;50.088;11.414;2024-03-08T07:46:32;4.10;99.90
24814;DHT22;12904;50.088;11.414;2024-03-08T07:48:59;4.10;99.90
24814;DHT22;12904;50.088;11.414;2024-03-08T07:51:25;4.10;99.90
24814;DHT22;12904;50.088;11.414;2024-03-08T07:53:51;4.10;99.90
24814;DHT22;12904;50.088;11.414;2024-03-08T07:56:16;4.10;99.90
24814;DHT22;12904;50.088;11.414;2024-03-08T07:58:44;4.00;99.90
24814;DHT22;12904;50.088;11.414;2024-03-08T08:01:28;4.00;99.90
24814;DHT22;12904;50.088;11.414;2024-03-08T08:03:53;4.00;99.90
24814;DHT22;12904;50.088;11.414;2024-03-08T08:06:19;4.00;99.90
24814;DHT22;12904;50.088;11.414;2024-03-08T08:08:45;4.00;99.90
24814;DHT22;12904;50.088;11.414;2024-03-08T08:11:11;4.10;99.90
24814;DHT22;12904;50.088;11.414;2024-03-08T08:13:41;4.10;99.90
24814;DHT22;12904;50.088;11.414;2024-03-08T08:16:09;4.20;99.90
24814;DHT22;12904;50.088;11.414;2024-03-08T08:18:35;4.30;99.90
24814;DHT22;12904;50.088;11.414;2024-03-08T08:21:01;4.30;99.90
24814;DHT22;12904;50.088;11.414;2024-03-08T08:23:26;4.40;99.90
24814;DHT22;12904;50.088;11.414;2024-03-08T08:25:52;4.50;99.90
24814;DHT22;12904;50.088;11.414;2024-03-08T08:28:18;4.50;99.90
24814;DHT22;12904;50.088;11.414;2024-03-08T08:30:46;4.60;99.90
24814;DHT22;12904;50.088;11.414;2024-03-08T08:33:12;4.70;99.90
24814;DHT22;12904;50.088;11.414;2024-03-08T08:35:38;4.70;99.90
24814;DHT22;12904;50.088;11.414;2024-03-08T08:38:07;4.90;99.90
24814;DHT22;12904;50.088;11.414;2024-03-08T08:40:35;5.00;99.90
24814;DHT22;12904;50.088;11.414;2024-03-08T08:43:04;5.20;99.90
24814;DHT22;12904;50.088;11.414;2024-03-08T08:45:32;5.30;99.90
24814;DHT22;12904;50.088;11.414;2024-03-08T08:47:59;5.40;99.90
24814;DHT22;12904;50.088;11.414;2024-03-08T08:50:28;5.50;99.90
24814;DHT22;12904;50.088;11.414;2024-03-08T08:52:54;5.50;99.90
24814;DHT22;12904;50.088;11.414;2024-03-08T08:55:20;5.60;99.90
24814;DHT22;12904;50.088;11.414;2024-03-08T08:57:52;5.70;99.90
24814;DHT22;12904;50.088;11.414;2024-03-08T09:00:19;5.80;99.90
24814;DHT22;12904;50.088;11.414;2024-03-08T09:02:46;5.90;99.90
24814;DHT22;12904;50.088;11.414;2024-03-08T09:05:12;6.00;99.90
24814;DHT22;12904;50.088;11.414;2024-03-08T09:07:40;6.20;99.90
24814;DHT22;12904;50.088;11.414;2024-03-08T09:10:06;6.30;99.90
24814;DHT22;12904;50.088;11.414;2024-03-08T09:12:32;6.40;99.90
24814;DHT22;12904;50.088;11.414;2024-03-08T09:14:58;6.50;99.90
24814;DHT22;12904;50.088;11.414;2024-03-08T09:17:24;6.60;99.90
24814;DHT22;12904;50.088;11.414;2024-03-08T09:19:51;6.80;99.90
24814;DHT22;12904;50.088;11.414;2024-03-08T09:22:16;7.20;99.90
24814;DHT22;12904;50.088;11.414;2024-03-08T09:24:43;7.90;99.90
24814;DHT22;12904;50.088;11.414;2024-03-08T09:27:09;9.00;99.90
24814;DHT22;12904;50.088;11.414;2024-03-08T09:29:39;10.20;99.90
24814;DHT22;12904;50.088;11.414;2024-03-08T09:32:04;11.60;99.90
24814;DHT22;12904;50.088;11.414;2024-03-08T09:34:30;12.70;87.10
24814;DHT22;12904;50.088;11.414;2024-03-08T09:36:56;13.10;82.00
24814;DHT22;12904;50.088;11.414;2024-03-08T09:39:21;13.90;78.70
24814;DHT22;12904;50.088;11.414;2024-03-08T09:41:47;14.80;73.80
24814;DHT22;12904;50.088;11.414;2024-03-08T09:44:14;15.60;70.30
24814;DHT22;12904;50.088;11.414;2024-03-08T09:46:40;15.90;64.40
24814;DHT22;12904;50.088;11.414;2024-03-08T09:49:06;15.60;62.50
24814;DHT22;12904;50.088;11.414;2024-03-08T09:51:34;15.60;62.40
24814;DHT22;12904;50.088;11.414;2024-03-08T09:54:03;15.20;63.70
24814;DHT22;12904;50.088;11.414;2024-03-08T09:56:32;15.50;62.80
24814;DHT22;12904;50.088;11.414;2024-03-08T09:58:59;15.20;63.30
24814;DHT22;12904;50.088;11.414;2024-03-08T10:01:33;15.60;62.90
24814;DHT22;12904;50.088;11.414;2024-03-08T10:03:59;15.30;63.30
24814;DHT22;12904;50.088;11.414;2024-03-08T10:06:25;14.90;63.80
24814;DHT22;12904;50.088;11.414;2024-03-08T10:08:51;15.10;66.60
24814;DHT22;12904;50.088;11.414;2024-03-08T10:11:20;15.70;65.40
24814;DHT22;12904;50.088;11.414;2024-03-08T10:13:48;16.40;62.60
24814;DHT22;12904;50.088;11.414;2024-03-08T10:16:13;17.00;58.80
24814;DHT22;12904;50.088;11.414;2024-03-08T10:18:39;17.40;57.30
24814;DHT22;12904;50.088;11.414;2024-03-08T10:21:08;17.60;57.20
24814;DHT22;12904;50.088;11.414;2024-03-08T10:23:35;17.60;57.20
24814;DHT22;12904;50.088;11.414;2024-03-08T10:26:14;17.40;56.10
24814;DHT22;12904;50.088;11.414;2024-03-08T10:28:48;16.40;57.20
24814;DHT22;12904;50.088;11.414;2024-03-08T10:31:14;16.20;60.00
24814;DHT22;12904;50.088;11.414;2024-03-08T10:33:43;16.30;59.40
24814;DHT22;12904;50.088;11.414;2024-03-08T10:36:10;16.50;58.00
24814;DHT22;12904;50.088;11.414;2024-03-08T10:38:43;15.40;58.20
24814;DHT22;12904;50.088;11.414;2024-03-08T10:41:12;15.20;61.90
24814;DHT22;12904;50.088;11.414;2024-03-08T10:46:26;14.90;59.50
24814;DHT22;12904;50.088;11.414;2024-03-08T10:48:56;14.70;61.90
24814;DHT22;12904;50.088;11.414;2024-03-08T10:51:24;14.40;62.80
24814;DHT22;12904;50.088;11.414;2024-03-08T10:53:52;14.50;62.30
24814;DHT22;12904;50.088;11.414;2024-03-08T10:56:18;14.40;62.10
24814;DHT22;12904;50.088;11.414;2024-03-08T10:58:44;14.70;63.50
24814;DHT22;12904;50.088;11.414;2024-03-08T11:01:11;14.90;63.10
24814;DHT22;12904;50.088;11.414;2024-03-08T11:08:42;15.00;62.50
24814;DHT22;12904;50.088;11.414;2024-03-08T11:14:00;14.10;61.40
24814;DHT22;12904;50.088;11.414;2024-03-08T11:21:36;13.80;65.30
24814;DHT22;12904;50.088;11.414;2024-03-08T11:24:10;13.70;63.90
24814;DHT22;12904;50.088;11.414;2024-03-08T11:26:37;13.20;64.70
24814;DHT22;12904;50.088;11.414;2024-03-08T11:32:19;12.80;66.30
24814;DHT22;12904;50.088;11.414;2024-03-08T11:34:48;12.80;67.40
24814;DHT22;12904;50.088;11.414;2024-03-08T11:37:16;12.80;68.20
24814;DHT22;12904;50.088;11.414;2024-03-08T11:39:54;12.60;67.40
24814;DHT22;12904;50.088;11.414;2024-03-08T11:42:24;12.30;69.50
24814;DHT22;12904;50.088;11.414;2024-03-08T11:44:52;12.00;70.60
24814;DHT22;12904;50.088;11.414;2024-03-08T11:47:18;12.10;71.70
24814;DHT22;12904;50.088;11.414;2024-03-08T11:49:45;12.20;71.40
24814;DHT22;12904;50.088;11.414;2024-03-08T11:52:14;12.30;69.20
24814;DHT22;12904;50.088;11.414;2024-03-08T11:54:41;12.30;69.60
24814;DHT22;12904;50.088;11.414;2024-03-08T11:57:07;12.40;71.10
24814;DHT22;12904;50.088;11.414;2024-03-08T11:59:34;12.30;69.00
24814;DHT22;12904;50.088;11.414;2024-03-08T12:02:05;12.30;68.90
24814;DHT22;12904;50.088;11.414;2024-03-08T12:04:31;12.50;69.50
24814;DHT22;12904;50.088;11.414;2024-03-08T12:06:59;12.60;69.50
24814;DHT22;12904;50.088;11.414;2024-03-08T12:09:36;12.30;68.70
24814;DHT22;12904;50.088;11.414;2024-03-08T12:12:03;12.50;71.50
24814;DHT22;12904;50.088;11.414;2024-03-08T12:14:33;12.80;70.10
24814;DHT22;12904;50.088;11.414;2024-03-08T12:16:59;13.00;69.10
24814;DHT22;12904;50.088;11.414;2024-03-08T12:19:27;13.30;69.20
24814;DHT22;12904;50.088;11.414;2024-03-08T12:21:54;13.50;67.00
24814;DHT22;12904;50.088;11.414;2024-03-08T12:24:20;13.20;66.50
24814;DHT22;12904;50.088;11.414;2024-03-08T12:26:47;12.90;66.40
24814;DHT22;12904;50.088;11.414;2024-03-08T12:29:27;12.70;66.60
24814;DHT22;12904;50.088;11.414;2024-03-08T12:31:58;12.50;67.50
24814;DHT22;12904;50.088;11.414;2024-03-08T12:34:26;12.50;68.00
24814;DHT22;12904;50.088;11.414;2024-03-08T12:36:54;12.50;67.70
24814;DHT22;12904;50.088;11.414;2024-03-08T12:39:21;12.50;68.10
24814;DHT22;12904;50.088;11.414;2024-03-08T12:41:56;12.60;68.50
24814;DHT22;12904;50.088;11.414;2024-03-08T12:44:27;12.70;66.70
24814;DHT22;12904;50.088;11.414;2024-03-08T12:46:54;12.70;69.10
24814;DHT22;12904;50.088;11.414;2024-03-08T12:49:20;12.90;68.90
24814;DHT22;12904;50.088;11.414;2024-03-08T12:51:48;13.00;66.80
24814;DHT22;12904;50.088;11.414;2024-03-08T12:54:14;13.30;66.80
24814;DHT22;12904;50.088;11.414;2024-03-08T12:56:40;13.40;67.20
24814;DHT22;12904;50.088;11.414;2024-03-08T12:59:07;13.60;65.40
24814;DHT22;12904;50.088;11.414;2024-03-08T13:01:34;13.60;66.50
24814;DHT22;12904;50.088;11.414;2024-03-08T13:04:03;13.70;66.20
24814;DHT22;12904;50.088;11.414;2024-03-08T13:06:29;13.60;65.70
24814;DHT22;12904;50.088;11.414;2024-03-08T13:08:56;13.70;66.00
24814;DHT22;12904;50.088;11.414;2024-03-08T13:11:23;13.60;63.80
24814;DHT22;12904;50.088;11.414;2024-03-08T13:13:49;13.30;64.10
24814;DHT22;12904;50.088;11.414;2024-03-08T13:16:15;13.00;66.10
24814;DHT22;12904;50.088;11.414;2024-03-08T13:18:42;12.70;66.30
24814;DHT22;12904;50.088;11.414;2024-03-08T13:21:09;12.30;68.00
24814;DHT22;12904;50.088;11.414;2024-03-08T13:23:35;12.10;68.40
24814;DHT22;12904;50.088;11.414;2024-03-08T13:26:11;12.20;69.60
24814;DHT22;12904;50.088;11.414;2024-03-08T13:28:47;12.20;67.50
24814;DHT22;12904;50.088;11.414;2024-03-08T13:31:22;11.80;67.40
24814;DHT22;12904;50.088;11.414;2024-03-08T13:33:48;11.70;68.40
24814;DHT22;12904;50.088;11.414;2024-03-08T13:36:15;11.80;72.00
24814;DHT22;12904;50.088;11.414;2024-03-08T13:38:45;11.90;72.00
24814;DHT22;12904;50.088;11.414;2024-03-08T13:41:12;11.90;70.00
24814;DHT22;12904;50.088;11.414;2024-03-08T13:43:40;12.10;70.20
24814;DHT22;12904;50.088;11.414;2024-03-08T13:46:06;12.10;68.90
24814;DHT22;12904;50.088;11.414;2024-03-08T13:48:33;12.10;68.90
24814;DHT22;12904;50.088;11.414;2024-03-08T13:50:58;12.00;68.10
24814;DHT22;12904;50.088;11.414;2024-03-08T13:53:26;12.00;68.60
24814;DHT22;12904;50.088;11.414;2024-03-08T13:55:51;12.30;68.50
24814;DHT22;12904;50.088;11.414;2024-03-08T13:58:17;12.60;69.00
24814;DHT22;12904;50.088;11.414;2024-03-08T14:00:42;12.90;68.60
24814;DHT22;12904;50.088;11.414;2024-03-08T14:03:11;12.60;65.20
24814;DHT22;12904;50.088;11.414;2024-03-08T14:05:41;12.70;67.20
24814;DHT22;12904;50.088;11.414;2024-03-08T14:08:08;12.90;66.70
24814;DHT22;12904;50.088;11.414;2024-03-08T14:10:34;12.80;66.90
24814;DHT22;12904;50.088;11.414;2024-03-08T14:13:00;13.00;66.00
24814;DHT22;12904;50.088;11.414;2024-03-08T14:15:28;13.20;65.20
24814;DHT22;12904;50.088;11.414;2024-03-08T14:17:54;13.50;63.80
24814;DHT22;12904;50.088;11.414;2024-03-08T14:20:21;13.60;61.40
24814;DHT22;12904;50.088;11.414;2024-03-08T14:22:56;13.30;61.60
24814;DHT22;12904;50.088;11.414;2024-03-08T14:25:23;13.40;64.40
24814;DHT22;12904;50.088;11.414;2024-03-08T14:27:52;13.70;64.00
24814;DHT22;12904;50.088;11.414;2024-03-08T14:30:27;14.00;62.90
24814;DHT22;12904;50.088;11.414;2024-03-08T14:33:07;14.30;60.50
24814;DHT22;12904;50.088;11.414;2024-03-08T14:35:35;14.50;60.50
24814;DHT22;12904;50.088;11.414;2024-03-08T14:38:01;14.70;60.30
24814;DHT22;12904;50.088;11.414;2024-03-08T14:40:27;14.10;59.20
24814;DHT22;12904;50.088;11.414;2024-03-08T14:42:53;13.80;62.40
24814;DHT22;12904;50.088;11.414;2024-03-08T14:45:19;13.70;62.20
24814;DHT22;12904;50.088;11.414;2024-03-08T14:47:48;13.70;63.00
24814;DHT22;12904;50.088;11.414;2024-03-08T14:50:22;13.90;61.60
24814;DHT22;12904;50.088;11.414;2024-03-08T14:52:51;14.10;62.60
24814;DHT22;12904;50.088;11.414;2024-03-08T14:55:18;14.00;60.60
24814;DHT22;12904;50.088;11.414;2024-03-08T14:57:51;13.90;61.60
24814;DHT22;12904;50.088;11.414;2024-03-08T15:00:18;13.20;61.50
24814;DHT22;12904;50.088;11.414;2024-03-08T15:02:56;13.00;64.10
24814;DHT22;12904;50.088;11.414;2024-03-08T15:05:24;12.80;62.90
24814;DHT22;12904;50.088;11.414;2024-03-08T15:07:54;12.50;63.80
24814;DHT22;12904;50.088;11.414;2024-03-08T15:10:20;12.50;64.60
24814;DHT22;12904;50.088;11.414;2024-03-08T15:12:48;12.70;65.50
24814;DHT22;12904;50.088;11.414;2024-03-08T15:15:14;12.70;66.20
24814;DHT22;12904;50.088;11.414;2024-03-08T15:17:44;12.70;65.20
24814;DHT22;12904;50.088;11.414;2024-03-08T15:20:12;12.70;66.10
24814;DHT22;12904;50.088;11.414;2024-03-08T15:22:50;12.60;65.40
24814;DHT22;12904;50.088;11.414;2024-03-08T15:25:19;12.70;64.20
24814;DHT22;12904;50.088;11.414;2024-03-08T15:27:52;12.70;65.50
24814;DHT22;12904;50.088;11.414;2024-03-08T15:30:18;12.80;64.50
24814;DHT22;12904;50.088;11.414;2024-03-08T15:32:48;12.70;63.80
24814;DHT22;12904;50.088;11.414;2024-03-08T15:35:16;12.60;64.80
24814;DHT22;12904;50.088;11.414;2024-03-08T15:37:42;12.70;65.20
24814;DHT22;12904;50.088;11.414;2024-03-08T15:40:10;12.60;64.40